createdAt,value
2019-04-05T00:00:55.496Z,76.13
2019-04-05T00:01:55.484Z,77.46
2019-04-05T00:02:55.470Z,77.50
2019-04-05T00:03:55.488Z,78.38
2019-04-05T00:04:55.474Z,78.28
2019-04-05T00:05:55.495Z,77.56
2019-04-05T00:06:55.432Z,77.46
2019-04-05T00:07:55.416Z,77.42
2019-04-05T00:08:55.424Z,77.53
2019-04-05T00:09:55.400Z,77.76
2019-04-05T00:10:55.432Z,77.53
2019-04-05T00:11:55.379Z,77.22
2019-04-05T00:12:55.367Z,77.22
2019-04-05T00:13:55.390Z,77.53
2019-04-05T00:14:55.348Z,77.22
2019-04-05T00:15:55.332Z,77.12
2019-04-05T00:16:55.355Z,77.26
2019-04-05T00:17:55.337Z,77.36
2019-04-05T00:18:55.300Z,77.56
2019-04-05T00:19:55.347Z,78.28
2019-04-05T00:20:55.279Z,77.56
2019-04-05T00:21:55.272Z,77.56
2019-04-05T00:22:55.266Z,77.46
2019-04-05T00:23:55.242Z,77.46
2019-04-05T00:24:55.258Z,77.46
2019-04-05T00:25:55.224Z,77.56
2019-04-05T00:26:55.214Z,77.87
2019-04-05T00:27:55.207Z,77.56
2019-04-05T00:28:55.194Z,76.95
2019-04-05T00:29:55.220Z,77.36
2019-04-05T00:30:55.176Z,77.46
2019-04-05T00:31:55.166Z,77.56
2019-04-05T00:32:55.144Z,77.15
2019-04-05T00:33:55.135Z,77.01
2019-04-05T00:34:55.143Z,77.05
2019-04-05T00:35:55.111Z,77.36
2019-04-05T00:36:55.113Z,77.67
2019-04-05T00:37:55.087Z,77.76
2019-04-05T00:38:55.079Z,77.67
2019-04-05T00:39:55.127Z,77.46
2019-04-05T00:40:55.061Z,77.36
2019-04-05T00:41:55.052Z,77.67
2019-04-05T00:42:55.061Z,77.87
2019-04-05T00:43:55.025Z,77.56
2019-04-05T00:44:55.015Z,77.76
2019-04-05T00:45:55.015Z,77.46
2019-04-05T00:46:54.993Z,77.56
2019-04-05T00:47:55.040Z,77.87
2019-04-05T00:48:54.989Z,77.56
2019-04-05T00:49:54.959Z,77.46
2019-04-05T00:50:54.971Z,77.22
2019-04-05T00:51:54.937Z,77.22
2019-04-05T00:52:54.931Z,76.30
2019-04-05T00:53:54.916Z,76.61
2019-04-05T00:54:54.964Z,76.09
2019-04-05T00:55:54.915Z,76.40
2019-04-05T00:56:54.889Z,75.99
2019-04-05T00:57:54.880Z,76.50
2019-04-05T00:58:54.863Z,76.30
2019-04-05T00:59:54.852Z,76.20
2019-04-05T01:00:54.881Z,76.50
2019-04-05T01:01:54.853Z,75.75
2019-04-05T01:02:54.827Z,75.85
2019-04-05T01:03:54.844Z,75.96
2019-04-05T01:04:54.811Z,75.68
2019-04-05T01:05:54.787Z,75.65
2019-04-05T01:06:54.796Z,75.85
2019-04-05T01:07:54.765Z,75.89
2019-04-05T01:08:54.757Z,76.20
2019-04-05T01:09:54.752Z,76.06
2019-04-05T01:10:54.893Z,75.48
2019-04-05T01:11:54.772Z,75.99
2019-04-05T01:12:54.717Z,75.89
2019-04-05T01:13:54.712Z,75.99
2019-04-05T01:14:54.697Z,75.59
2019-04-05T01:15:54.685Z,76.09
2019-04-05T01:16:54.685Z,76.30
2019-04-05T01:17:54.654Z,76.30
2019-04-05T01:18:54.688Z,76.09
2019-04-05T01:19:54.636Z,75.68
2019-04-05T01:20:54.626Z,75.59
2019-04-05T01:21:54.629Z,76.09
2019-04-05T01:22:54.605Z,75.79
2019-04-05T01:23:54.592Z,75.89
2019-04-05T01:24:54.586Z,76.20
2019-04-05T01:25:54.568Z,76.40
2019-04-05T01:26:54.596Z,76.43
2019-04-05T01:27:54.574Z,76.20
2019-04-05T01:28:54.540Z,75.99
2019-04-05T01:29:54.526Z,76.54
2019-04-05T01:30:54.567Z,76.43
2019-04-05T01:31:54.510Z,76.75
2019-04-05T01:32:54.510Z,76.84
2019-04-05T01:33:54.482Z,76.64
2019-04-05T01:34:54.476Z,76.75
2019-04-05T01:35:54.499Z,76.95
2019-04-05T01:36:54.452Z,76.98
2019-04-05T01:37:54.454Z,76.98
2019-04-05T01:38:54.426Z,77.50
2019-04-05T01:39:54.428Z,76.98
2019-04-05T01:40:54.408Z,77.15
2019-04-05T01:41:54.430Z,77.56
2019-04-05T01:42:54.402Z,77.46
2019-04-05T01:43:54.374Z,77.19
2019-04-05T01:44:54.362Z,77.19
2019-04-05T01:45:54.438Z,77.39
2019-04-05T01:46:54.342Z,76.68
2019-04-05T01:47:54.378Z,77.19
2019-04-05T01:48:54.324Z,77.09
2019-04-05T01:49:54.309Z,77.60
2019-04-05T01:50:54.309Z,77.09
2019-04-05T01:51:54.290Z,77.29
2019-04-05T01:52:54.305Z,76.98
2019-04-05T01:53:54.270Z,77.60
2019-04-05T01:54:54.270Z,77.50
2019-04-05T01:55:54.264Z,77.70
2019-04-05T01:56:54.236Z,77.60
2019-04-05T01:57:54.224Z,77.39
2019-04-05T01:58:54.233Z,77.80
2019-04-05T01:59:54.200Z,77.80
2019-04-05T02:00:54.190Z,77.80
2019-04-05T02:01:54.214Z,77.70
2019-04-05T02:02:54.167Z,77.70
2019-04-05T02:03:54.185Z,77.50
2019-04-05T02:04:54.150Z,77.80
2019-04-05T02:05:54.169Z,77.94
2019-04-05T02:06:54.127Z,78.45
2019-04-05T02:07:54.115Z,78.05
2019-04-05T02:08:54.143Z,77.73
2019-04-05T02:09:54.131Z,77.64
2019-04-05T02:10:54.080Z,78.35
2019-04-05T02:11:54.075Z,78.70
2019-04-05T02:12:54.067Z,78.59
2019-04-05T02:13:54.067Z,79.11
2019-04-05T02:14:54.039Z,79.04
2019-04-05T02:16:05.591Z,79.04
2019-04-05T02:16:55.023Z,79.04
2019-04-05T02:17:54.037Z,79.14
2019-04-05T02:18:54.017Z,79.55
2019-04-05T02:19:53.994Z,79.55
2019-04-05T02:20:53.977Z,80.07
2019-04-05T02:21:53.965Z,80.62
2019-04-05T02:22:53.961Z,80.72
2019-04-05T02:23:53.961Z,79.69
2019-04-05T02:24:53.947Z,80.31
2019-04-05T02:25:53.930Z,80.41
2019-04-05T02:26:53.908Z,80.82
2019-04-05T02:27:53.901Z,80.41
2019-04-05T02:28:53.905Z,80.82
2019-04-05T02:29:53.887Z,80.41
2019-04-05T02:30:53.890Z,80.51
2019-04-05T02:31:53.855Z,80.96
2019-04-05T02:32:53.882Z,80.86
2019-04-05T02:33:53.854Z,81.27
2019-04-05T02:34:53.848Z,81.34
2019-04-05T02:35:53.819Z,81.16
2019-04-05T02:36:53.802Z,81.37
2019-04-05T02:37:53.829Z,81.48
2019-04-05T02:38:53.820Z,81.34
2019-04-05T02:39:53.789Z,81.57
2019-04-05T02:40:53.754Z,81.27
2019-04-05T02:41:53.743Z,81.68
2019-04-05T02:42:53.753Z,82.19
2019-04-05T02:43:53.740Z,81.16
2019-04-05T02:44:53.767Z,82.09
2019-04-05T02:45:53.707Z,81.51
2019-04-05T02:46:53.690Z,82.23
2019-04-05T02:47:53.733Z,81.82
2019-04-05T02:48:53.674Z,82.03
2019-04-05T02:49:53.679Z,81.82
2019-04-05T02:50:53.651Z,82.54
2019-04-05T02:51:53.639Z,81.71
2019-04-05T02:52:53.630Z,81.51
2019-04-05T02:53:53.614Z,82.27
2019-04-05T02:54:53.629Z,82.78
2019-04-05T02:55:53.601Z,82.89
2019-04-05T02:56:53.581Z,83.05
2019-04-05T02:57:53.573Z,83.09
2019-04-05T02:58:53.564Z,82.99
2019-04-05T02:59:53.566Z,82.89
2019-04-05T03:00:53.542Z,81.76
2019-04-05T03:01:53.564Z,83.40
2019-04-05T03:02:53.514Z,82.37
2019-04-05T03:03:53.529Z,83.29
2019-04-05T03:04:53.513Z,82.89
2019-04-05T03:05:53.493Z,82.71
2019-04-05T03:06:53.495Z,82.99
2019-04-05T03:07:53.473Z,83.33
2019-04-05T03:08:53.496Z,83.13
2019-04-05T03:09:53.454Z,83.13
2019-04-05T03:10:53.429Z,82.92
2019-04-05T03:11:53.417Z,83.44
2019-04-05T03:12:53.411Z,83.13
2019-04-05T03:13:53.399Z,83.68
2019-04-05T03:14:53.416Z,82.96
2019-04-05T03:15:53.387Z,83.58
2019-04-05T03:16:53.363Z,84.50
2019-04-05T03:17:53.380Z,84.50
2019-04-05T03:18:53.349Z,83.68
2019-04-05T03:19:53.360Z,83.99
2019-04-05T03:20:53.322Z,85.06
2019-04-05T03:21:53.327Z,84.54
2019-04-05T03:22:53.301Z,83.83
2019-04-05T03:23:53.291Z,85.26
2019-04-05T03:24:53.353Z,85.71
2019-04-05T03:25:53.270Z,84.99
2019-04-05T03:26:53.256Z,85.47
2019-04-05T03:27:53.261Z,85.47
2019-04-05T03:28:53.236Z,86.19
2019-04-05T03:29:53.224Z,85.57
2019-04-05T03:30:53.244Z,85.57
2019-04-05T03:31:53.206Z,85.68
2019-04-05T03:32:53.194Z,85.68
2019-04-05T03:33:53.220Z,86.08
2019-04-05T03:34:53.190Z,84.95
2019-04-05T03:35:53.180Z,85.02
2019-04-05T03:36:53.144Z,85.43
2019-04-05T03:37:53.138Z,85.53
2019-04-05T03:38:53.171Z,85.02
2019-04-05T03:39:53.117Z,85.47
2019-04-05T03:40:53.117Z,85.47
2019-04-05T03:41:53.100Z,85.36
2019-04-05T03:42:53.086Z,85.22
2019-04-05T03:43:53.069Z,85.43
2019-04-05T03:44:53.111Z,85.22
2019-04-05T03:45:53.078Z,85.53
2019-04-05T03:46:56.909Z,85.53
2019-04-05T03:47:53.030Z,84.85
2019-04-05T03:48:53.032Z,84.75
2019-04-05T03:49:53.017Z,85.57
2019-04-05T03:50:53.010Z,85.57
2019-04-05T03:51:52.985Z,85.16
2019-04-05T03:52:53.011Z,85.43
2019-04-05T03:53:52.969Z,84.71
2019-04-05T03:54:53.010Z,84.91
2019-04-05T03:55:52.968Z,84.75
2019-04-05T03:56:52.938Z,85.26
2019-04-05T03:57:52.919Z,84.64
2019-04-05T03:58:52.918Z,85.57
2019-04-05T03:59:52.956Z,84.95
2019-04-05T04:00:52.907Z,85.36
2019-04-05T04:01:52.878Z,85.10
2019-04-05T04:02:52.871Z,85.61
2019-04-05T04:03:52.870Z,85.30
2019-04-05T04:04:52.849Z,85.71
2019-04-05T04:05:53.045Z,85.30
2019-04-05T04:06:52.826Z,85.51
2019-04-05T04:07:52.827Z,86.43
2019-04-05T04:08:52.803Z,86.85
2019-04-05T04:09:52.797Z,85.82
2019-04-05T04:10:52.810Z,86.33
2019-04-05T04:11:52.778Z,86.54
2019-04-05T04:12:52.769Z,86.02
2019-04-05T04:13:52.769Z,85.92
2019-04-05T04:14:52.742Z,86.37
2019-04-05T04:15:52.741Z,86.95
2019-04-05T04:16:52.734Z,87.67
2019-04-05T04:17:52.702Z,86.95
2019-04-05T04:18:52.696Z,86.58
2019-04-05T04:19:52.682Z,86.43
2019-04-05T04:20:52.738Z,86.85
2019-04-05T04:21:52.675Z,86.33
2019-04-05T04:22:52.653Z,86.74
2019-04-05T04:23:52.641Z,86.47
2019-04-05T04:24:52.629Z,86.68
2019-04-05T04:25:52.618Z,86.58
2019-04-05T04:26:52.617Z,86.88
2019-04-05T04:27:52.674Z,86.79
2019-04-05T04:28:52.596Z,86.58
2019-04-05T04:29:52.575Z,86.27
2019-04-05T04:30:52.562Z,86.99
2019-04-05T04:31:52.578Z,87.71
2019-04-05T04:32:52.539Z,87.51
2019-04-05T04:33:52.537Z,88.43
2019-04-05T04:34:52.520Z,87.71
2019-04-05T04:35:52.509Z,88.02
2019-04-05T04:36:52.533Z,88.43
2019-04-05T04:37:52.490Z,87.92
2019-04-05T04:38:52.484Z,87.87
2019-04-05T04:39:52.474Z,87.81
2019-04-05T04:40:52.464Z,87.60
2019-04-05T04:41:52.466Z,86.95
2019-04-05T04:42:52.433Z,86.58
2019-04-05T04:43:52.429Z,87.57
2019-04-05T04:44:52.430Z,87.51
2019-04-05T04:45:52.406Z,87.15
2019-04-05T04:46:52.400Z,86.88
2019-04-05T04:47:52.384Z,87.67
2019-04-05T04:48:52.370Z,87.30
2019-04-05T04:49:52.356Z,87.40
2019-04-05T04:50:52.350Z,87.60
2019-04-05T04:51:52.365Z,87.67
2019-04-05T04:52:52.327Z,86.95
2019-04-05T04:53:52.313Z,86.95
2019-04-05T04:54:52.302Z,86.95
2019-04-05T04:55:52.287Z,86.54
2019-04-05T04:56:52.294Z,86.54
2019-04-05T04:57:52.293Z,86.40
2019-04-05T04:58:52.259Z,86.33
2019-04-05T04:59:52.251Z,86.40
2019-04-05T05:00:52.234Z,86.08
2019-04-05T05:01:52.265Z,85.88
2019-04-05T05:02:52.211Z,85.43
2019-04-05T05:03:52.247Z,84.91
2019-04-05T05:04:52.191Z,85.18
2019-04-05T05:05:52.188Z,84.47
2019-04-05T05:06:52.167Z,83.75
2019-04-05T05:07:52.173Z,84.88
2019-04-05T05:08:52.146Z,84.67
2019-04-05T05:09:52.137Z,84.26
2019-04-05T05:10:52.144Z,84.47
2019-04-05T05:11:52.129Z,84.22
2019-04-05T05:12:52.117Z,84.01
2019-04-05T05:13:52.091Z,84.22
2019-04-05T05:14:52.084Z,83.61
2019-04-05T05:15:52.070Z,84.12
2019-04-05T05:16:52.102Z,84.12
2019-04-05T05:17:58.633Z,84.18
2019-04-05T05:18:53.041Z,84.18
2019-04-05T05:19:52.038Z,83.56
2019-04-05T05:20:52.022Z,83.77
2019-04-05T05:21:52.009Z,82.95
2019-04-05T05:22:52.033Z,82.75
2019-04-05T05:23:51.983Z,82.81
2019-04-05T05:24:51.977Z,82.29
2019-04-05T05:25:51.965Z,82.81
2019-04-05T05:26:51.959Z,82.50
2019-04-05T05:27:51.955Z,82.26
2019-04-05T05:28:51.983Z,81.43
2019-04-05T05:29:51.923Z,82.15
2019-04-05T05:30:51.909Z,81.43
2019-04-05T05:31:51.909Z,80.82
2019-04-05T05:32:51.902Z,80.78
2019-04-05T05:33:51.881Z,80.27
2019-04-05T05:35:01.989Z,80.47
2019-04-05T05:35:52.856Z,80.64
2019-04-05T05:36:51.849Z,80.23
2019-04-05T05:37:51.851Z,80.64
2019-04-05T05:38:51.827Z,80.64
2019-04-05T05:39:51.815Z,79.00
2019-04-05T05:40:51.820Z,79.07
2019-04-05T05:41:51.819Z,79.27
2019-04-05T05:42:51.836Z,78.97
2019-04-05T05:43:51.766Z,79.27
2019-04-05T05:44:51.755Z,79.17
2019-04-05T05:45:51.763Z,79.13
2019-04-05T05:46:51.738Z,78.63
2019-04-05T05:47:52.596Z,78.72
2019-04-05T05:48:51.717Z,79.00
2019-04-05T05:49:51.709Z,78.69
2019-04-05T05:50:51.731Z,78.89
2019-04-05T05:51:51.679Z,78.55
2019-04-05T05:52:51.696Z,78.65
2019-04-05T05:53:51.660Z,78.55
2019-04-05T05:54:51.648Z,77.08
2019-04-05T05:55:51.642Z,76.88
2019-04-05T05:56:51.624Z,76.57
2019-04-05T05:57:54.333Z,76.26
2019-04-05T05:58:55.330Z,76.16
2019-04-05T05:59:52.595Z,76.23
2019-04-05T06:00:51.596Z,75.71
2019-04-05T06:01:51.574Z,75.17
2019-04-05T06:02:51.562Z,74.97
2019-04-05T06:03:51.580Z,74.46
2019-04-05T06:04:51.544Z,73.60
2019-04-05T06:06:03.704Z,74.73
2019-04-05T06:06:52.521Z,74.22
2019-04-05T06:07:51.505Z,72.75
2019-04-05T06:08:51.513Z,72.55
2019-04-05T06:09:51.514Z,72.65
2019-04-05T06:10:51.471Z,72.86
2019-04-05T06:11:51.475Z,72.52
2019-04-05T06:12:51.450Z,72.31
2019-04-05T06:13:51.456Z,72.52
2019-04-05T06:14:51.431Z,72.28
2019-04-05T06:15:51.456Z,71.56
2019-04-05T06:16:51.410Z,72.58
2019-04-05T06:18:03.847Z,71.46
2019-04-05T06:18:52.415Z,71.36
2019-04-05T06:19:51.387Z,72.04
2019-04-05T06:20:51.361Z,70.61
2019-04-05T06:21:51.368Z,70.68
2019-04-05T06:22:51.343Z,70.48
2019-04-05T06:23:51.349Z,70.68
2019-04-05T06:24:51.324Z,69.12
2019-04-05T06:25:51.307Z,70.24
2019-04-05T06:26:51.329Z,68.31
2019-04-05T06:27:51.303Z,69.32
2019-04-05T06:28:51.423Z,69.29
2019-04-05T06:29:51.270Z,68.18
2019-04-05T06:30:51.259Z,67.74
2019-04-05T06:31:51.247Z,67.10
2019-04-05T06:32:51.233Z,66.02
2019-04-05T06:33:51.247Z,64.20
2019-04-05T06:34:51.215Z,62.04
2019-04-05T06:35:51.199Z,60.97
2019-04-05T06:36:51.460Z,59.29
2019-04-05T06:37:51.179Z,57.44
2019-04-05T06:38:51.190Z,56.91
2019-04-05T06:39:51.204Z,58.47
2019-04-05T06:40:51.145Z,55.92
2019-04-05T06:41:51.135Z,56.50
2019-04-05T06:42:51.123Z,54.13
2019-04-05T06:43:51.132Z,54.10
2019-04-05T06:44:51.105Z,52.87
2019-04-05T06:45:51.254Z,52.64
2019-04-05T06:46:51.085Z,51.89
2019-04-05T06:47:51.103Z,50.46
2019-04-05T06:48:51.080Z,50.35
2019-04-05T06:49:51.066Z,49.93
2019-04-05T06:50:51.041Z,50.71
2019-04-05T06:51:51.039Z,48.28
2019-04-05T06:52:51.015Z,47.65
2019-04-05T06:53:51.036Z,46.95
2019-04-05T06:54:51.001Z,46.83
2019-04-05T06:55:50.977Z,46.73
2019-04-05T06:56:50.975Z,46.50
2019-04-05T06:57:50.961Z,44.78
2019-04-05T06:58:50.973Z,44.35
2019-04-05T06:59:50.984Z,44.76
2019-04-05T07:00:57.254Z,44.64
2019-04-05T07:01:51.940Z,44.82
2019-04-05T07:02:50.905Z,43.19
2019-04-05T07:03:50.910Z,42.79
2019-04-05T07:04:50.917Z,42.85
2019-04-05T07:05:50.872Z,41.83
2019-04-05T07:06:50.863Z,41.74
2019-04-05T07:07:50.878Z,40.92
2019-04-05T07:08:54.067Z,41.09
2019-04-05T07:09:50.846Z,40.30
2019-04-05T07:10:50.828Z,40.88
2019-04-05T07:11:50.814Z,39.08
2019-04-05T07:12:50.849Z,38.09
2019-04-05T07:13:50.795Z,38.96
2019-04-05T07:14:50.802Z,38.96
2019-04-05T07:15:50.796Z,38.07
2019-04-05T07:16:50.762Z,37.85
2019-04-05T07:17:50.754Z,37.21
2019-04-05T07:18:50.740Z,37.99
2019-04-05T07:19:50.739Z,37.28
2019-04-05T07:20:50.739Z,36.98
2019-04-05T07:21:50.706Z,36.96
2019-04-05T07:22:50.689Z,37.10
2019-04-05T07:23:50.715Z,37.18
2019-04-05T07:24:50.684Z,36.98
2019-04-05T07:25:50.659Z,37.12
2019-04-05T07:26:50.656Z,36.62
2019-04-05T07:27:50.635Z,37.05
2019-04-05T07:28:50.637Z,38.45
2019-04-05T07:29:50.650Z,37.45
2019-04-05T07:30:50.615Z,38.43
2019-04-05T07:31:50.596Z,37.43
2019-04-05T07:32:50.581Z,37.83
2019-04-05T07:33:50.574Z,38.63
2019-04-05T07:34:50.595Z,38.63
2019-04-05T07:35:50.551Z,38.95
2019-04-05T07:36:50.542Z,38.54
2019-04-05T07:37:50.534Z,39.53
2019-04-05T07:38:50.544Z,38.53
2019-04-05T07:39:50.541Z,38.51
2019-04-05T07:40:50.506Z,39.01
2019-04-05T07:41:50.506Z,38.61
2019-04-05T07:42:50.476Z,38.53
2019-04-05T07:43:50.469Z,38.63
2019-04-05T07:44:50.498Z,38.81
2019-04-05T07:45:50.450Z,39.23
2019-04-05T07:46:50.452Z,39.01
2019-04-05T07:47:50.427Z,38.71
2019-04-05T07:48:50.420Z,38.79
2019-04-05T07:49:50.405Z,38.39
2019-04-05T07:50:50.407Z,36.98
2019-04-05T07:51:50.379Z,37.88
2019-04-05T07:52:50.424Z,37.36
2019-04-05T07:53:50.365Z,37.08
2019-04-05T07:54:50.358Z,38.31
2019-04-05T07:55:50.359Z,38.41
2019-04-05T07:56:50.325Z,38.41
2019-04-05T07:57:50.327Z,38.49
2019-04-05T07:58:50.332Z,38.77
2019-04-05T07:59:50.305Z,39.11
2019-04-05T08:00:50.316Z,40.54
2019-04-05T08:01:50.276Z,41.03
2019-04-05T08:02:50.258Z,40.54
2019-04-05T08:03:50.249Z,40.24
2019-04-05T08:04:50.267Z,40.24
2019-04-05T08:05:50.245Z,41.77
2019-04-05T08:06:50.229Z,41.67
2019-04-05T08:07:50.215Z,42.40
2019-04-05T08:08:50.205Z,42.81
2019-04-05T08:09:50.183Z,42.43
2019-04-05T08:10:50.197Z,43.05
2019-04-05T08:11:50.167Z,43.85
2019-04-05T08:12:50.147Z,44.75
2019-04-05T08:13:50.137Z,44.65
2019-04-05T08:14:50.133Z,44.15
2019-04-05T08:15:50.140Z,44.57
2019-04-05T08:16:50.137Z,45.00
2019-04-05T08:17:50.128Z,45.39
2019-04-05T08:18:57.815Z,45.42
2019-04-05T08:19:51.074Z,45.42
2019-04-05T08:20:50.076Z,45.64
2019-04-05T08:21:50.063Z,46.46
2019-04-05T08:22:50.051Z,46.56
2019-04-05T08:23:50.038Z,46.34
2019-04-05T08:24:50.046Z,46.16
2019-04-05T08:25:50.027Z,46.66
2019-04-05T08:26:50.003Z,46.28
2019-04-05T08:27:49.990Z,47.91
2019-04-05T08:28:49.983Z,48.23
2019-04-05T08:29:49.968Z,48.96
2019-04-05T08:30:49.982Z,49.05
2019-04-05T08:31:49.951Z,50.06
2019-04-05T08:32:49.961Z,49.33
2019-04-05T08:33:49.930Z,49.86
2019-04-05T08:34:49.916Z,50.06
2019-04-05T08:35:49.942Z,50.01
2019-04-05T08:36:49.892Z,51.54
2019-04-05T08:37:49.886Z,51.59
2019-04-05T08:38:49.900Z,53.20
2019-04-05T08:39:49.857Z,52.59
2019-04-05T08:40:49.897Z,53.70
2019-04-05T08:41:49.852Z,54.25
2019-04-05T08:42:49.831Z,54.58
2019-04-05T08:43:49.828Z,54.99
2019-04-05T08:44:49.818Z,56.09
2019-04-05T08:45:49.826Z,55.94
2019-04-05T08:46:49.804Z,57.35
2019-04-05T08:47:49.773Z,57.45
2019-04-05T08:48:52.247Z,57.38
2019-04-05T08:49:49.803Z,57.98
2019-04-05T08:50:49.737Z,58.06
2019-04-05T08:51:49.742Z,57.35
2019-04-05T08:52:49.716Z,56.95
2019-04-05T08:53:49.709Z,57.35
2019-04-05T08:54:49.725Z,57.25
2019-04-05T08:55:49.695Z,57.35
2019-04-05T08:56:49.695Z,57.45
2019-04-05T08:57:49.708Z,58.39
2019-04-05T08:58:49.650Z,58.19
2019-04-05T08:59:49.639Z,58.82
2019-04-05T09:00:49.628Z,58.72
2019-04-05T09:01:49.632Z,59.45
2019-04-05T09:02:49.745Z,59.76
2019-04-05T09:03:49.728Z,60.06
2019-04-05T09:04:49.593Z,60.29
2019-04-05T09:05:49.579Z,61.10
2019-04-05T09:06:49.576Z,61.00
2019-04-05T09:07:49.557Z,60.29
2019-04-05T09:08:49.546Z,61.40
2019-04-05T09:09:49.535Z,61.00
2019-04-05T09:10:49.525Z,60.89
2019-04-05T09:11:49.546Z,60.93
2019-04-05T09:12:49.497Z,61.43
2019-04-05T09:13:49.494Z,62.04
2019-04-05T09:14:49.473Z,61.53
2019-04-05T09:15:49.460Z,62.04
2019-04-05T09:16:49.492Z,62.74
2019-04-05T09:17:49.443Z,62.04
2019-04-05T09:18:49.708Z,61.83
2019-04-05T09:19:49.435Z,62.04
2019-04-05T09:20:49.445Z,61.63
2019-04-05T09:21:49.397Z,61.94
2019-04-05T09:22:49.407Z,62.04
2019-04-05T09:23:49.378Z,62.44
2019-04-05T09:24:49.372Z,62.24
2019-04-05T09:25:49.395Z,62.24
2019-04-05T09:26:49.347Z,62.01
2019-04-05T09:27:49.359Z,62.11
2019-04-05T09:28:49.319Z,62.41
2019-04-05T09:29:49.310Z,62.82
2019-04-05T09:30:51.666Z,61.60
2019-04-05T09:31:49.331Z,62.11
2019-04-05T09:32:49.279Z,62.34
2019-04-05T09:33:49.266Z,62.24
2019-04-05T09:34:49.270Z,62.95
2019-04-05T09:35:49.246Z,63.61
2019-04-05T09:36:49.253Z,64.73
2019-04-05T09:37:49.243Z,64.65
2019-04-05T09:38:49.216Z,66.00
2019-04-05T09:39:49.203Z,66.41
2019-04-05T09:40:49.193Z,66.71
2019-04-05T09:41:49.197Z,66.50
2019-04-05T09:42:49.171Z,66.74
2019-04-05T09:43:49.178Z,67.45
2019-04-05T09:44:49.157Z,67.76
2019-04-05T09:45:49.146Z,67.65
2019-04-05T09:46:51.180Z,68.23
2019-04-05T09:47:49.120Z,68.52
2019-04-05T09:48:49.107Z,69.95
2019-04-05T09:49:49.098Z,69.34
2019-04-05T09:50:49.095Z,69.34
2019-04-05T09:51:49.087Z,69.44
2019-04-05T09:52:49.069Z,69.34
2019-04-05T09:53:49.055Z,69.44
2019-04-05T09:54:49.042Z,69.54
2019-04-05T09:55:49.028Z,70.18
2019-04-05T09:56:49.057Z,70.18
2019-04-05T09:57:49.029Z,70.08
2019-04-05T09:58:49.018Z,70.28
2019-04-05T09:59:49.004Z,70.39
2019-04-05T10:00:48.994Z,70.79
2019-04-05T10:01:48.987Z,70.59
2019-04-05T10:02:48.952Z,70.59
2019-04-05T10:03:48.943Z,70.89
2019-04-05T10:04:48.934Z,70.89
2019-04-05T10:05:48.920Z,70.59
2019-04-05T10:06:48.952Z,70.59
2019-04-05T10:07:55.385Z,70.89
2019-04-05T10:08:49.903Z,70.83
2019-04-05T10:09:50.400Z,71.03
2019-04-05T10:10:48.870Z,71.64
2019-04-05T10:11:48.881Z,71.80
2019-04-05T10:12:48.850Z,71.64
2019-04-05T10:13:48.846Z,71.44
2019-04-05T10:14:48.846Z,72.04
2019-04-05T10:15:48.818Z,72.11
2019-04-05T10:16:48.820Z,70.92
2019-04-05T10:17:48.794Z,71.70
2019-04-05T10:18:51.417Z,71.09
2019-04-05T10:19:50.261Z,71.91
2019-04-05T10:20:48.784Z,71.50
2019-04-05T10:21:48.762Z,71.91
2019-04-05T10:22:48.736Z,71.44
2019-04-05T10:23:48.729Z,71.84
2019-04-05T10:24:48.714Z,71.33
2019-04-05T10:25:48.735Z,71.94
2019-04-05T10:26:48.766Z,72.14
2019-04-05T10:27:48.697Z,72.14
2019-04-05T10:28:48.672Z,72.04
2019-04-05T10:29:49.609Z,72.04
2019-04-05T10:30:49.595Z,72.04
2019-04-05T10:31:48.675Z,72.25
2019-04-05T10:32:48.632Z,72.04
2019-04-05T10:33:48.649Z,72.34
2019-04-05T10:34:48.607Z,72.14
2019-04-05T10:35:48.594Z,72.04
2019-04-05T10:36:48.585Z,72.34
2019-04-05T10:37:48.596Z,71.44
2019-04-05T10:38:48.561Z,71.94
2019-04-05T10:39:48.570Z,72.14
2019-04-05T10:40:48.543Z,71.97
2019-04-05T10:41:48.531Z,72.65
2019-04-05T10:42:48.537Z,72.65
2019-04-05T10:43:48.508Z,72.04
2019-04-05T10:44:48.498Z,72.58
2019-04-05T10:45:48.497Z,72.55
2019-04-05T10:46:48.585Z,72.58
2019-04-05T10:47:48.493Z,72.55
2019-04-05T10:48:48.460Z,72.45
2019-04-05T10:49:48.468Z,72.04
2019-04-05T10:50:48.441Z,72.65
2019-04-05T10:51:48.430Z,71.94
2019-04-05T10:52:48.432Z,72.55
2019-04-05T10:53:48.409Z,72.65
2019-04-05T10:54:48.427Z,72.45
2019-04-05T10:55:48.398Z,72.11
2019-04-05T10:56:48.405Z,72.01
2019-04-05T10:57:48.378Z,72.21
2019-04-05T10:58:48.349Z,71.60
2019-04-05T10:59:48.350Z,70.56
2019-04-05T11:00:48.326Z,71.67
2019-04-05T11:01:48.317Z,71.88
2019-04-05T11:02:48.321Z,71.77
2019-04-05T11:03:48.292Z,71.67
2019-04-05T11:04:48.300Z,71.53
2019-04-05T11:05:49.446Z,70.52
2019-04-05T11:06:48.258Z,70.52
2019-04-05T11:07:48.263Z,70.12
2019-04-05T11:08:48.250Z,70.65
2019-04-05T11:09:48.229Z,70.45
2019-04-05T11:10:48.222Z,70.65
2019-04-05T11:11:48.205Z,71.73
2019-04-05T11:12:49.872Z,70.76
2019-04-05T11:13:48.185Z,70.12
2019-04-05T11:14:48.182Z,70.96
2019-04-05T11:15:48.162Z,71.13
2019-04-05T11:16:57.939Z,71.64
2019-04-05T11:17:49.173Z,71.64
2019-04-05T11:18:48.134Z,70.83
2019-04-05T11:19:48.120Z,71.64
2019-04-05T11:20:49.661Z,70.39
2019-04-05T11:21:52.015Z,70.49
2019-04-05T11:22:50.082Z,70.39
2019-04-05T11:23:48.074Z,69.37
2019-04-05T11:24:48.064Z,69.24
2019-04-05T11:25:48.078Z,69.44
2019-04-05T11:26:48.065Z,68.94
2019-04-05T11:27:48.042Z,69.01
2019-04-05T11:28:48.015Z,69.21
2019-04-05T11:29:48.009Z,68.47
2019-04-05T11:30:48.000Z,68.67
2019-04-05T11:31:57.125Z,67.66
2019-04-05T11:32:49.039Z,67.72
2019-04-05T11:33:47.965Z,67.72
2019-04-05T11:34:47.956Z,67.32
2019-04-05T11:35:47.942Z,66.72
2019-04-05T11:36:47.938Z,66.28
2019-04-05T11:37:50.690Z,66.52
2019-04-05T11:38:50.289Z,66.72
2019-04-05T11:39:48.629Z,67.22
2019-04-05T11:40:47.906Z,66.28
2019-04-05T11:41:47.876Z,66.28
2019-04-05T11:42:47.882Z,66.65
2019-04-05T11:43:47.852Z,65.34
2019-04-05T11:44:47.872Z,65.54
2019-04-05T11:45:48.655Z,63.90
2019-04-05T11:46:49.388Z,64.90
2019-04-05T11:47:47.826Z,64.00
2019-04-05T11:48:47.804Z,63.46
2019-04-05T11:49:47.791Z,62.85
2019-04-05T11:50:47.794Z,63.96
2019-04-05T11:51:47.766Z,63.87
2019-04-05T11:52:47.772Z,63.76
2019-04-05T11:53:47.750Z,61.95
2019-04-05T11:54:47.734Z,63.30
2019-04-05T11:55:47.720Z,62.06
2019-04-05T11:56:47.725Z,61.93
2019-04-05T11:57:47.719Z,60.19
2019-04-05T11:58:48.736Z,60.93
2019-04-05T11:59:48.804Z,59.72
2019-04-05T12:00:47.668Z,58.61
2019-04-05T12:01:47.654Z,58.88
2019-04-05T12:02:47.679Z,58.65
2019-04-05T12:03:47.667Z,58.73
2019-04-05T12:04:47.643Z,57.82
2019-04-05T12:05:47.624Z,56.49
2019-04-05T12:06:47.632Z,57.50
2019-04-05T12:07:47.592Z,56.41
2019-04-05T12:08:47.618Z,56.89
2019-04-05T12:09:48.004Z,55.76
2019-04-05T12:10:47.565Z,55.86
2019-04-05T12:11:47.549Z,55.16
2019-04-05T12:12:47.553Z,54.85
2019-04-05T12:13:47.858Z,55.16
2019-04-05T12:14:47.518Z,55.63
2019-04-05T12:15:47.513Z,55.16
2019-04-05T12:16:47.495Z,54.85
2019-04-05T12:17:47.516Z,55.55
2019-04-05T12:18:47.497Z,55.03
2019-04-05T12:19:47.464Z,54.45
2019-04-05T12:20:55.318Z,55.13
2019-04-05T12:21:48.466Z,54.93
2019-04-05T12:22:47.429Z,55.10
2019-04-05T12:23:47.457Z,53.87
2019-04-05T12:24:47.709Z,52.84
2019-04-05T12:25:47.405Z,52.32
2019-04-05T12:26:47.392Z,51.49
2019-04-05T12:27:47.385Z,50.16
2019-04-05T12:28:47.387Z,50.69
2019-04-05T12:29:47.359Z,50.44
2019-04-05T12:30:47.349Z,48.74
2019-04-05T12:31:47.340Z,50.14
2019-04-05T12:32:48.904Z,48.82
2019-04-05T12:33:51.350Z,49.85
2019-04-05T12:34:47.314Z,47.75
2019-04-05T12:35:47.307Z,48.13
2019-04-05T12:36:47.282Z,46.48
2019-04-05T12:37:50.481Z,45.47
2019-04-05T12:38:47.295Z,45.94
2019-04-05T12:39:47.251Z,45.62
2019-04-05T12:40:47.260Z,43.93
2019-04-05T12:41:47.245Z,44.02
2019-04-05T12:42:47.221Z,42.93
2019-04-05T12:43:47.239Z,44.40
2019-04-05T12:44:47.197Z,44.08
2019-04-05T12:45:47.200Z,43.49
2019-04-05T12:46:47.187Z,42.57
2019-04-05T12:47:47.185Z,43.15
2019-04-05T12:48:47.173Z,41.66
2019-04-05T12:49:47.166Z,42.55
2019-04-05T12:50:47.145Z,41.87
2019-04-05T12:51:47.122Z,42.57
2019-04-05T12:52:47.117Z,41.67